createdAt,value
2018-02-06T00:02:08.474Z,-3.90
2018-02-06T00:04:36.054Z,-3.90
2018-02-06T00:07:04.298Z,-3.90
2018-02-06T00:09:31.801Z,-4.00
2018-02-06T00:12:00.235Z,-4.00
2018-02-06T00:14:28.584Z,-4.00
2018-02-06T00:16:56.343Z,-4.00
2018-02-06T00:19:24.653Z,-4.00
2018-02-06T00:21:52.281Z,-4.00
2018-02-06T00:24:19.823Z,-4.00
2018-02-06T00:26:48.101Z,-4.00
2018-02-06T00:29:15.643Z,-4.00
2018-02-06T00:31:43.915Z,-4.00
2018-02-06T00:34:12.199Z,-4.10
2018-02-06T00:36:40.459Z,-4.10
2018-02-06T00:39:07.965Z,-4.10
2018-02-06T00:41:35.449Z,-4.10
2018-02-06T00:44:02.947Z,-4.10
2018-02-06T00:46:31.227Z,-4.10
2018-02-06T00:48:59.491Z,-4.10
2018-02-06T00:51:26.980Z,-4.20
2018-02-06T00:53:54.479Z,-4.20
2018-02-06T00:56:21.982Z,-4.20
2018-02-06T00:58:50.244Z,-4.20
2018-02-06T01:01:17.734Z,-4.20
2018-02-06T01:03:45.218Z,-4.20
2018-02-06T01:06:12.818Z,-4.20
2018-02-06T01:08:41.118Z,-4.10
2018-02-06T01:11:09.833Z,-4.20
2018-02-06T01:13:37.339Z,-4.20
2018-02-06T01:16:05.598Z,-4.20
2018-02-06T01:18:33.132Z,-4.20
2018-02-06T01:21:00.681Z,-4.20
2018-02-06T01:23:28.221Z,-4.20
2018-02-06T01:25:55.779Z,-4.20
2018-02-06T01:28:23.373Z,-4.20
2018-02-06T01:30:51.705Z,-4.20
2018-02-06T01:33:20.368Z,-4.20
2018-02-06T01:35:48.001Z,-4.30
2018-02-06T01:38:15.509Z,-4.30
2018-02-06T01:40:43.946Z,-4.30
2018-02-06T01:43:11.981Z,-4.30
2018-02-06T01:45:39.841Z,-4.30
2018-02-06T01:48:09.267Z,-4.30
2018-02-06T01:50:36.929Z,-4.40
2018-02-06T01:53:04.610Z,-4.30
2018-02-06T01:55:32.936Z,-4.30
2018-02-06T01:58:00.526Z,-4.30
2018-02-06T02:00:28.120Z,-4.30
2018-02-06T02:02:55.858Z,-4.30
2018-02-06T02:05:23.724Z,-4.30
2018-02-06T02:07:51.588Z,-4.30
2018-02-06T02:10:19.199Z,-4.30
2018-02-06T02:12:47.423Z,-4.30
2018-02-06T02:15:15.495Z,-4.30
2018-02-06T02:17:43.125Z,-4.40
2018-02-06T02:20:11.537Z,-4.30
2018-02-06T02:22:39.301Z,-4.30
2018-02-06T02:25:07.067Z,-4.30
2018-02-06T02:27:34.741Z,-4.30
2018-02-06T02:30:02.527Z,-4.30
2018-02-06T02:32:30.900Z,-4.20
2018-02-06T02:34:58.739Z,-4.30
2018-02-06T02:37:26.882Z,-4.30
2018-02-06T02:39:54.679Z,-4.30
2018-02-06T04:40:38.193Z,-4.70
2018-02-06T04:43:06.475Z,-4.70
2018-02-06T04:45:34.722Z,-4.70
2018-02-06T04:48:02.300Z,-4.70
2018-02-06T04:50:30.564Z,-4.70
2018-02-06T04:52:58.155Z,-4.70
2018-02-06T04:55:25.638Z,-4.70
2018-02-06T04:57:53.135Z,-4.70
2018-02-06T05:00:20.658Z,-4.70
2018-02-06T05:02:48.150Z,-4.70
2018-02-06T05:05:15.700Z,-4.70
2018-02-06T05:07:43.186Z,-4.70
2018-02-06T05:10:11.431Z,-4.70
2018-02-06T05:12:38.925Z,-4.80
2018-02-06T05:15:07.181Z,-4.80
2018-02-06T05:17:34.661Z,-4.80
2018-02-06T05:20:03.033Z,-4.80
2018-02-06T05:22:31.315Z,-4.80
2018-02-06T05:24:59.597Z,-4.80
2018-02-06T05:27:27.977Z,-4.70
2018-02-06T05:29:56.237Z,-4.70
2018-02-06T05:32:23.723Z,-4.70
2018-02-06T05:34:51.231Z,-4.70
2018-02-06T05:37:18.721Z,-4.60
2018-02-06T05:39:46.976Z,-4.60
2018-02-06T05:42:15.085Z,-4.60
2018-02-06T05:44:42.628Z,-4.60
2018-02-06T05:47:10.873Z,-4.60
2018-02-06T05:49:38.366Z,-4.60
2018-02-06T05:52:06.615Z,-4.60
2018-02-06T05:54:34.202Z,-4.60
2018-02-06T05:57:02.478Z,-4.70
2018-02-06T05:59:30.735Z,-4.60
2018-02-06T06:01:59.713Z,-4.70
2018-02-06T06:04:27.210Z,-4.70
2018-02-06T06:06:55.458Z,-4.70
2018-02-06T06:09:22.946Z,-4.70
2018-02-06T06:11:50.746Z,-4.70
2018-02-06T06:14:18.234Z,-4.70
2018-02-06T06:16:45.730Z,-4.80
2018-02-06T06:19:13.998Z,-4.70
2018-02-06T06:21:42.247Z,-4.80
2018-02-06T06:24:09.763Z,-4.80
2018-02-06T06:26:37.259Z,-4.80
2018-02-06T06:29:04.749Z,-4.80
2018-02-06T06:31:33.095Z,-4.80
2018-02-06T06:34:00.699Z,-4.80
2018-02-06T06:36:28.955Z,-4.80
2018-02-06T06:38:56.435Z,-4.90
2018-02-06T06:41:24.692Z,-4.80
2018-02-06T06:43:52.944Z,-4.80
2018-02-06T06:46:20.917Z,-4.90
2018-02-06T06:48:48.417Z,-4.80
2018-02-06T06:51:16.669Z,-4.80
2018-02-06T06:53:44.166Z,-4.80
2018-02-06T06:56:11.694Z,-4.80
2018-02-06T06:58:39.944Z,-4.70
2018-02-06T07:01:07.442Z,-4.70
2018-02-06T07:03:35.702Z,-4.70
2018-02-06T07:06:03.194Z,-4.70
2018-02-06T07:08:30.674Z,-4.70
2018-02-06T07:10:58.342Z,-4.70
2018-02-06T07:13:25.828Z,-4.60
2018-02-06T07:15:53.322Z,-4.60
2018-02-06T07:18:20.810Z,-4.60
2018-02-06T07:20:48.300Z,-4.50
2018-02-06T07:23:15.786Z,-4.40
2018-02-06T07:25:43.287Z,-4.30
2018-02-06T07:28:10.789Z,-4.20
2018-02-06T07:30:39.046Z,-4.00
2018-02-06T07:33:06.547Z,-4.00
2018-02-06T07:35:34.081Z,-3.90
2018-02-06T07:38:02.340Z,-3.70
2018-02-06T07:40:29.839Z,-3.70
2018-02-06T07:42:57.377Z,-3.60
2018-02-06T07:45:25.671Z,-3.40
2018-02-06T07:47:53.934Z,-3.30
2018-02-06T07:50:21.497Z,-3.30
2018-02-06T07:52:49.748Z,-3.10
2018-02-06T07:55:17.254Z,-3.20
2018-02-06T07:57:44.748Z,-3.00
2018-02-06T08:00:12.239Z,-3.00
2018-02-06T08:02:39.768Z,-2.90
2018-02-06T08:05:07.254Z,-2.80
2018-02-06T08:07:34.743Z,-2.80
2018-02-06T08:10:02.242Z,-2.70
2018-02-06T08:12:29.719Z,-2.60
2018-02-06T08:14:57.202Z,-2.50
2018-02-06T08:17:25.467Z,-2.30
2018-02-06T08:19:53.722Z,-2.30
2018-02-06T08:22:21.270Z,-2.30
2018-02-06T08:24:48.769Z,-2.20
2018-02-06T08:27:17.014Z,-2.00
2018-02-06T08:29:44.495Z,-2.00
2018-02-06T08:32:11.985Z,-1.90
2018-02-06T08:34:39.465Z,-1.80
2018-02-06T08:37:06.945Z,-1.60
2018-02-06T08:39:34.535Z,-1.40
2018-02-06T08:42:02.781Z,-1.10
2018-02-06T08:44:30.275Z,-1.10
2018-02-06T08:46:58.549Z,-1.00
2018-02-06T08:49:26.785Z,-1.00
2018-02-06T08:51:54.283Z,-1.00
2018-02-06T08:54:21.779Z,-0.90
2018-02-06T08:56:49.258Z,-0.90
2018-02-06T08:59:16.763Z,-0.80
2018-02-06T09:01:45.023Z,-0.70
2018-02-06T09:04:12.610Z,-0.70
2018-02-06T09:06:40.164Z,-0.60
2018-02-06T09:09:08.426Z,-0.40
2018-02-06T09:11:36.690Z,-0.30
2018-02-06T09:14:05.692Z,-0.30
2018-02-06T09:16:33.270Z,-0.30
2018-02-06T09:19:01.507Z,-0.10
2018-02-06T09:21:28.982Z,-0.10
2018-02-06T09:23:56.564Z,0.10
2018-02-06T09:26:24.804Z,0.30
2018-02-06T09:28:52.394Z,0.30
2018-02-06T09:31:20.657Z,0.40
2018-02-06T09:33:48.139Z,0.40
2018-02-06T09:36:15.716Z,0.50
2018-02-06T09:38:43.203Z,0.60
2018-02-06T09:41:10.681Z,0.70
2018-02-06T09:43:39.101Z,0.70
2018-02-06T09:46:06.643Z,0.70
2018-02-06T09:48:34.891Z,0.90
2018-02-06T09:51:02.379Z,0.90
2018-02-06T09:53:30.651Z,0.70
2018-02-06T09:55:58.926Z,0.70
2018-02-06T09:58:27.173Z,0.70
2018-02-06T10:00:54.664Z,0.70
2018-02-06T10:03:22.915Z,0.80
2018-02-06T10:05:51.899Z,0.90
2018-02-06T10:08:19.390Z,0.90
2018-02-06T10:10:47.652Z,1.20
2018-02-06T10:13:15.360Z,1.20
2018-02-06T10:15:42.878Z,1.50
2018-02-06T10:18:10.354Z,1.60
2018-02-06T10:20:38.594Z,2.20
2018-02-06T10:23:06.081Z,2.20
2018-02-06T10:25:34.321Z,2.60
2018-02-06T10:28:01.801Z,2.60
2018-02-06T10:30:29.289Z,2.90
2018-02-06T10:32:56.765Z,3.30
2018-02-06T10:35:24.245Z,3.70
2018-02-06T10:37:51.729Z,4.00
2018-02-06T10:40:19.205Z,4.60
2018-02-06T10:42:47.440Z,5.40
2018-02-06T10:45:15.040Z,5.40
2018-02-06T10:47:43.312Z,5.70
2018-02-06T10:50:11.624Z,5.10
2018-02-06T10:52:39.184Z,5.10
2018-02-06T10:55:06.706Z,5.10
2018-02-06T10:57:34.947Z,5.50
2018-02-06T11:00:02.433Z,5.40
2018-02-06T11:02:29.909Z,5.50
2018-02-06T11:04:57.434Z,5.70
2018-02-06T11:07:25.018Z,6.10
2018-02-06T11:09:53.270Z,6.70
2018-02-06T11:12:20.744Z,6.70
2018-02-06T11:14:48.238Z,6.90
2018-02-06T11:17:15.769Z,7.00
2018-02-06T11:19:44.022Z,6.80
2018-02-06T11:22:12.565Z,6.90
2018-02-06T11:24:40.142Z,6.90
2018-02-06T11:27:07.709Z,7.00
2018-02-06T11:29:35.307Z,6.60
2018-02-06T11:32:03.729Z,6.10
2018-02-06T11:34:31.493Z,6.00
2018-02-06T11:36:59.173Z,6.40
2018-02-06T11:39:27.021Z,6.80
2018-02-06T11:41:54.941Z,7.50
2018-02-06T11:44:23.477Z,8.40
2018-02-06T11:46:51.342Z,8.40
2018-02-06T11:49:19.107Z,8.70
2018-02-06T11:51:46.779Z,8.90
2018-02-06T11:54:14.532Z,10.10
2018-02-06T11:56:42.929Z,10.20
2018-02-06T11:59:11.598Z,11.30
2018-02-06T12:01:39.363Z,12.80
2018-02-06T12:04:07.157Z,14.00
2018-02-06T12:06:35.454Z,15.70
2018-02-06T12:09:03.165Z,15.60
2018-02-06T12:11:30.830Z,16.10
2018-02-06T12:13:58.440Z,16.40
2018-02-06T12:16:26.972Z,16.20
2018-02-06T12:18:54.574Z,16.20
2018-02-06T12:21:23.010Z,15.40
2018-02-06T12:23:50.645Z,15.40
2018-02-06T12:26:18.917Z,15.60
2018-02-06T12:28:47.194Z,14.90
2018-02-06T12:31:15.469Z,14.10
2018-02-06T12:33:43.745Z,13.70
2018-02-06T12:36:12.089Z,13.90
2018-02-06T12:38:39.565Z,13.80
2018-02-06T12:41:07.040Z,13.90
2018-02-06T12:43:35.299Z,13.50
2018-02-06T12:46:02.773Z,13.50
2018-02-06T12:48:31.053Z,13.40
2018-02-06T12:50:59.311Z,13.40
2018-02-06T12:53:26.886Z,13.40
2018-02-06T12:55:54.448Z,13.50
2018-02-06T12:58:22.714Z,13.40
2018-02-06T13:00:50.284Z,13.40
2018-02-06T13:03:18.540Z,14.00
2018-02-06T13:05:47.858Z,13.90
2018-02-06T13:08:16.096Z,14.50
2018-02-06T13:10:43.573Z,14.50
2018-02-06T13:13:11.060Z,14.40
2018-02-06T13:15:39.343Z,13.50
2018-02-06T13:18:06.857Z,13.50
2018-02-06T13:20:34.351Z,13.90
2018-02-06T13:23:02.601Z,14.90
2018-02-06T13:25:30.177Z,14.80
2018-02-06T13:27:57.669Z,15.30
2018-02-06T13:30:25.215Z,15.50
2018-02-06T13:32:53.557Z,15.60
2018-02-06T13:35:21.117Z,15.60
2018-02-06T13:37:48.607Z,16.10
2018-02-06T13:40:16.853Z,15.40
2018-02-06T13:42:44.355Z,15.40
2018-02-06T13:45:11.856Z,15.60
2018-02-06T13:47:39.368Z,16.20
2018-02-06T13:50:06.864Z,17.60
2018-02-06T13:52:34.413Z,18.20
2018-02-06T13:55:02.639Z,17.30
2018-02-06T14:10:52.822Z,15.80
2018-02-06T14:13:21.082Z,16.50
2018-02-06T14:15:48.570Z,16.50
2018-02-06T14:18:16.938Z,16.50
2018-02-06T14:20:45.220Z,15.40
2018-02-06T14:23:13.474Z,15.10
2018-02-06T14:25:41.298Z,15.00
2018-02-06T14:28:08.780Z,15.00
2018-02-06T14:30:36.278Z,14.50
2018-02-06T14:33:04.536Z,14.10
2018-02-06T14:35:32.036Z,14.10
2018-02-06T14:37:59.525Z,13.60
2018-02-06T14:40:27.015Z,13.70
2018-02-06T14:42:54.495Z,13.50
2018-02-06T14:45:22.747Z,12.80
2018-02-06T14:47:50.464Z,12.80
2018-02-06T14:50:18.021Z,13.30
2018-02-06T14:52:45.542Z,13.40
2018-02-06T14:55:13.803Z,13.50
2018-02-06T14:57:41.287Z,13.40
2018-02-06T15:00:09.552Z,11.40
2018-02-06T15:02:37.817Z,10.50
2018-02-06T15:05:05.388Z,10.40
2018-02-06T15:07:33.627Z,9.90
2018-02-06T15:10:01.227Z,9.80
2018-02-06T15:12:29.534Z,9.20
2018-02-06T15:14:57.031Z,9.20
2018-02-06T15:17:24.531Z,9.00
2018-02-06T15:19:52.778Z,8.60
2018-02-06T15:22:20.460Z,8.50
2018-02-06T15:24:48.748Z,8.90
2018-02-06T15:27:17.352Z,9.50
2018-02-06T15:29:44.837Z,9.50
2018-02-06T15:32:12.323Z,9.30
2018-02-06T15:34:39.816Z,9.40
2018-02-06T15:37:07.296Z,9.50
2018-02-06T15:39:34.790Z,9.30
2018-02-06T15:42:02.287Z,9.10
2018-02-06T15:44:29.833Z,8.50
2018-02-06T15:46:58.087Z,8.40
2018-02-06T15:49:25.667Z,8.40
2018-02-06T15:51:53.159Z,8.50
2018-02-06T15:54:20.683Z,8.00
2018-02-06T15:56:48.927Z,6.30
2018-02-06T15:59:16.403Z,6.30
2018-02-06T16:01:43.899Z,5.70
2018-02-06T16:04:11.381Z,5.00
2018-02-06T16:06:38.867Z,4.50
2018-02-06T16:09:06.381Z,4.00
2018-02-06T16:11:33.866Z,3.60
2018-02-06T16:14:01.350Z,3.40
2018-02-06T16:16:28.840Z,3.20
2018-02-06T16:18:57.082Z,2.80
2018-02-06T16:21:24.563Z,2.80
2018-02-06T16:23:52.898Z,2.30
2018-02-06T16:26:20.375Z,2.30
2018-02-06T16:28:47.852Z,2.20
2018-02-06T16:31:16.106Z,1.80
2018-02-06T16:33:43.590Z,1.80
2018-02-06T16:36:11.844Z,1.50
2018-02-06T16:38:39.332Z,1.50
2018-02-06T16:41:07.574Z,1.30
2018-02-06T16:43:36.562Z,1.10
2018-02-06T16:46:04.061Z,1.10
2018-02-06T16:48:32.328Z,0.90
2018-02-06T16:51:00.579Z,0.80
2018-02-06T16:53:28.167Z,0.80
2018-02-06T16:55:56.423Z,0.60
2018-02-06T16:58:25.403Z,0.50
2018-02-06T17:00:52.885Z,0.40
2018-02-06T17:03:21.161Z,0.30
2018-02-06T17:05:49.447Z,0.20
2018-02-06T17:08:17.722Z,0.20
2018-02-06T17:10:45.999Z,0.10
2018-02-06T17:13:14.275Z,0.00
2018-02-06T17:15:42.535Z,-0.10
2018-02-06T17:18:10.019Z,-0.10
2018-02-06T17:20:38.263Z,-0.20
2018-02-06T17:23:06.546Z,-0.30
2018-02-06T17:25:34.032Z,-0.30
2018-02-06T17:28:01.514Z,-0.30
2018-02-06T17:30:29.009Z,-0.30
2018-02-06T17:32:56.590Z,-0.50
2018-02-06T17:35:24.838Z,-0.60
2018-02-06T17:37:52.430Z,-0.70
2018-02-06T17:40:20.684Z,-0.80
2018-02-06T17:42:48.161Z,-0.80
2018-02-06T17:45:16.444Z,-0.90
2018-02-06T17:47:44.718Z,-0.90
2018-02-06T17:50:12.970Z,-1.00
2018-02-06T17:52:40.466Z,-1.00
2018-02-06T17:55:08.709Z,-1.10
2018-02-06T17:57:36.389Z,-1.10
2018-02-06T18:00:04.651Z,-1.20
2018-02-06T18:02:32.147Z,-1.20
2018-02-06T18:04:59.635Z,-1.20
2018-02-06T18:07:27.127Z,-1.30
2018-02-06T18:09:54.607Z,-1.30
2018-02-06T18:12:22.931Z,-1.40
2018-02-06T18:14:50.545Z,-1.40
2018-02-06T18:17:18.782Z,-1.50
2018-02-06T18:19:46.265Z,-1.50
2018-02-06T18:22:14.519Z,-1.60
2018-02-06T18:24:42.010Z,-1.60
2018-02-06T18:27:10.255Z,-1.70
2018-02-06T18:29:37.840Z,-1.70
2018-02-06T18:32:05.322Z,-1.70
2018-02-06T18:34:32.806Z,-1.80
2018-02-06T18:37:00.306Z,-1.80
2018-02-06T18:39:27.886Z,-1.90
2018-02-06T18:41:56.131Z,-1.80
2018-02-06T18:44:24.394Z,-1.80
2018-02-06T18:46:51.898Z,-1.80
2018-02-06T18:49:20.144Z,-1.80
2018-02-06T18:51:47.637Z,-1.80
2018-02-06T18:54:15.899Z,-1.90
2018-02-06T18:56:44.185Z,-1.90
2018-02-06T18:59:12.462Z,-2.00
2018-02-06T19:01:39.957Z,-2.00
2018-02-06T19:04:07.447Z,-2.00
2018-02-06T19:06:35.033Z,-2.00
2018-02-06T19:09:03.296Z,-2.10
2018-02-06T19:11:32.337Z,-2.20
2018-02-06T19:14:00.575Z,-2.20
2018-02-06T19:16:28.069Z,-2.20
2018-02-06T19:18:55.554Z,-2.20
2018-02-06T19:21:23.059Z,-2.20
2018-02-06T19:23:51.311Z,-2.20
2018-02-06T19:26:21.255Z,-2.30
2018-02-06T19:28:49.534Z,-2.20
2018-02-06T19:31:17.788Z,-2.20
2018-02-06T19:33:46.044Z,-2.20
2018-02-06T19:36:13.566Z,-2.30
2018-02-06T19:38:41.070Z,-2.20
2018-02-06T19:41:08.567Z,-2.30
2018-02-06T19:43:36.070Z,-2.30
2018-02-06T19:46:05.113Z,-2.40
2018-02-06T19:48:33.360Z,-2.30
2018-02-06T19:51:01.345Z,-2.30
2018-02-06T19:53:29.611Z,-2.30
2018-02-06T19:55:57.115Z,-2.30
2018-02-06T19:58:24.625Z,-2.30
2018-02-06T20:00:52.129Z,-2.40
2018-02-06T20:03:19.625Z,-2.40
2018-02-06T20:05:47.131Z,-2.40
2018-02-06T20:08:15.409Z,-2.50
2018-02-06T20:10:42.963Z,-2.50
2018-02-06T20:13:11.229Z,-2.50
2018-02-06T20:15:39.483Z,-2.50
2018-02-06T20:18:07.323Z,-2.50
2018-02-06T20:20:34.861Z,-2.50
2018-02-06T20:23:02.687Z,-2.60
2018-02-06T20:25:30.306Z,-2.60
2018-02-06T20:27:57.918Z,-2.60
2018-02-06T20:30:25.855Z,-2.60
2018-02-06T20:32:53.382Z,-2.60
2018-02-06T20:35:20.901Z,-2.60
2018-02-06T20:37:49.906Z,-2.60
2018-02-06T20:40:18.298Z,-2.70
2018-02-06T20:42:46.570Z,-2.70
2018-02-06T20:45:14.082Z,-2.70
2018-02-06T20:47:41.576Z,-2.60
2018-02-06T20:50:09.852Z,-2.70
2018-02-06T20:52:38.114Z,-2.70
2018-02-06T20:55:05.634Z,-2.70
2018-02-06T20:57:33.155Z,-2.70
2018-02-06T21:00:01.617Z,-2.70
2018-02-06T21:02:29.135Z,-2.80
2018-02-06T21:04:56.725Z,-2.70
2018-02-06T21:07:24.999Z,-2.80
2018-02-06T21:09:52.601Z,-2.80
2018-02-06T21:12:20.131Z,-2.80
2018-02-06T21:14:47.683Z,-2.90
2018-02-06T21:17:15.263Z,-2.90
2018-02-06T21:19:43.801Z,-3.00
2018-02-06T21:22:11.431Z,-3.00
2018-02-06T21:24:39.205Z,-3.00
2018-02-06T21:27:06.763Z,-3.00
2018-02-06T21:29:34.388Z,-3.00
2018-02-06T21:32:02.113Z,-3.00
2018-02-06T21:34:29.890Z,-3.00
2018-02-06T21:36:57.648Z,-3.00
2018-02-06T21:39:25.490Z,-3.00
2018-02-06T21:41:53.116Z,-3.00
2018-02-06T21:44:20.628Z,-3.00
2018-02-06T21:46:48.990Z,-3.10
2018-02-06T21:49:16.898Z,-3.10
2018-02-06T21:51:45.334Z,-3.10
2018-02-06T21:54:14.996Z,-3.20
2018-02-06T21:56:43.290Z,-3.10
2018-02-06T21:59:11.548Z,-3.00
2018-02-06T22:01:39.131Z,-3.00
2018-02-06T22:04:07.403Z,-3.10
2018-02-06T22:06:35.651Z,-3.20
2018-02-06T22:09:03.139Z,-3.20
2018-02-06T22:11:31.405Z,-3.20
2018-02-06T22:13:59.657Z,-3.30
2018-02-06T22:16:27.139Z,-3.30
2018-02-06T22:18:54.632Z,-3.20
2018-02-06T22:21:22.194Z,-3.30
2018-02-06T22:23:49.690Z,-3.30
2018-02-06T22:26:17.291Z,-3.30
2018-02-06T22:28:45.540Z,-3.30
2018-02-06T22:31:13.023Z,-3.30
2018-02-06T22:33:41.282Z,-3.30
2018-02-06T22:36:08.770Z,-3.40
2018-02-06T22:38:36.289Z,-3.30
2018-02-06T22:41:03.761Z,-3.30
2018-02-06T22:43:31.248Z,-3.40
2018-02-06T22:45:58.728Z,-3.30
2018-02-06T22:48:26.302Z,-3.40
2018-02-06T22:50:53.824Z,-3.30
2018-02-06T22:53:21.318Z,-3.40
2018-02-06T22:55:48.918Z,-3.40
2018-02-06T22:58:17.174Z,-3.40
2018-02-06T23:00:45.480Z,-3.40
2018-02-06T23:03:13.741Z,-3.40
2018-02-06T23:05:41.985Z,-3.40
2018-02-06T23:08:09.489Z,-3.50
2018-02-06T23:10:37.283Z,-3.40
2018-02-06T23:13:05.307Z,-3.40
2018-02-06T23:15:32.887Z,-3.40
2018-02-06T23:18:01.199Z,-3.40
2018-02-06T23:20:28.687Z,-3.50
2018-02-06T23:22:56.177Z,-3.40
2018-02-06T23:25:24.433Z,-3.50
2018-02-06T23:27:52.018Z,-3.50
2018-02-06T23:30:20.267Z,-3.50
2018-02-06T23:32:47.776Z,-3.60
2018-02-06T23:35:15.266Z,-3.50
2018-02-06T23:37:42.762Z,-3.50
2018-02-06T23:40:11.022Z,-3.60
2018-02-06T23:42:38.499Z,-3.60
2018-02-06T23:45:06.768Z,-3.60
2018-02-06T23:47:35.034Z,-3.60
2018-02-06T23:50:02.522Z,-3.60
2018-02-06T23:52:29.997Z,-3.60
2018-02-06T23:54:57.650Z,-3.60
2018-02-06T23:57:25.185Z,-3.60
2018-02-06T23:59:53.433Z,-3.60
